sensor_id;sensor_type;location;lat;lon;timestamp;P1;durP1;ratioP1;P2;durP2;ratioP2
32535;SDS011;18974;50.838;4.636;2023-03-23T00:01:14;7.00;;;3.30;;
32535;SDS011;18974;50.838;4.636;2023-03-23T00:03:44;6.63;;;4.80;;
32535;SDS011;18974;50.838;4.636;2023-03-23T00:06:11;6.07;;;3.38;;
32535;SDS011;18974;50.838;4.636;2023-03-23T00:08:42;7.45;;;3.35;;
32535;SDS011;18974;50.838;4.636;2023-03-23T00:13:43;6.65;;;3.42;;
32535;SDS011;18974;50.838;4.636;2023-03-23T00:16:10;6.28;;;3.55;;
32535;SDS011;18974;50.838;4.636;2023-03-23T00:18:46;5.32;;;3.35;;
32535;SDS011;18974;50.838;4.636;2023-03-23T00:21:17;4.63;;;3.10;;
32535;SDS011;18974;50.838;4.636;2023-03-23T00:23:43;5.07;;;3.33;;
32535;SDS011;18974;50.838;4.636;2023-03-23T00:26:10;4.63;;;2.80;;
32535;SDS011;18974;50.838;4.636;2023-03-23T00:28:36;11.52;;;4.10;;
32535;SDS011;18974;50.838;4.636;2023-03-23T00:31:04;6.05;;;3.35;;
32535;SDS011;18974;50.838;4.636;2023-03-23T00:33:32;8.73;;;3.40;;
32535;SDS011;18974;50.838;4.636;2023-03-23T00:36:02;5.57;;;3.30;;
32535;SDS011;18974;50.838;4.636;2023-03-23T00:38:29;4.30;;;3.08;;
32535;SDS011;18974;50.838;4.636;2023-03-23T00:40:55;4.10;;;3.15;;
32535;SDS011;18974;50.838;4.636;2023-03-23T00:43:22;5.05;;;2.95;;
32535;SDS011;18974;50.838;4.636;2023-03-23T00:45:49;8.48;;;4.00;;
32535;SDS011;18974;50.838;4.636;2023-03-23T00:48:24;6.32;;;3.25;;
32535;SDS011;18974;50.838;4.636;2023-03-23T00:50:50;5.13;;;3.30;;
32535;SDS011;18974;50.838;4.636;2023-03-23T00:53:17;4.07;;;2.95;;
32535;SDS011;18974;50.838;4.636;2023-03-23T00:55:44;8.80;;;3.20;;
32535;SDS011;18974;50.838;4.636;2023-03-23T00:58:11;5.30;;;3.28;;
32535;SDS011;18974;50.838;4.636;2023-03-23T01:00:37;5.43;;;3.50;;
32535;SDS011;18974;50.838;4.636;2023-03-23T01:03:03;5.53;;;3.08;;
32535;SDS011;18974;50.838;4.636;2023-03-23T01:05:29;5.60;;;3.40;;
32535;SDS011;18974;50.838;4.636;2023-03-23T01:08:03;5.50;;;2.90;;
32535;SDS011;18974;50.838;4.636;2023-03-23T01:10:30;6.05;;;3.60;;
32535;SDS011;18974;50.838;4.636;2023-03-23T01:12:57;5.35;;;3.17;;
32535;SDS011;18974;50.838;4.636;2023-03-23T01:15:27;7.47;;;3.20;;
32535;SDS011;18974;50.838;4.636;2023-03-23T01:17:54;5.55;;;3.28;;
32535;SDS011;18974;50.838;4.636;2023-03-23T01:20:20;5.40;;;2.85;;
32535;SDS011;18974;50.838;4.636;2023-03-23T01:22:46;4.78;;;2.90;;
32535;SDS011;18974;50.838;4.636;2023-03-23T01:25:12;5.30;;;3.05;;
32535;SDS011;18974;50.838;4.636;2023-03-23T01:27:38;6.25;;;3.55;;
32535;SDS011;18974;50.838;4.636;2023-03-23T01:30:06;5.03;;;2.88;;
32535;SDS011;18974;50.838;4.636;2023-03-23T01:32:33;6.90;;;4.03;;
32535;SDS011;18974;50.838;4.636;2023-03-23T01:35:00;7.60;;;3.35;;
32535;SDS011;18974;50.838;4.636;2023-03-23T01:37:25;5.25;;;3.55;;
32535;SDS011;18974;50.838;4.636;2023-03-23T01:39:57;8.18;;;3.03;;
32535;SDS011;18974;50.838;4.636;2023-03-23T01:42:23;7.90;;;3.20;;
32535;SDS011;18974;50.838;4.636;2023-03-23T01:47:16;5.53;;;3.50;;
32535;SDS011;18974;50.838;4.636;2023-03-23T01:49:44;8.35;;;3.58;;
32535;SDS011;18974;50.838;4.636;2023-03-23T01:52:13;6.63;;;3.25;;
32535;SDS011;18974;50.838;4.636;2023-03-23T01:54:48;4.68;;;3.30;;
32535;SDS011;18974;50.838;4.636;2023-03-23T01:57:17;5.00;;;3.35;;
32535;SDS011;18974;50.838;4.636;2023-03-23T01:59:45;5.57;;;3.30;;
32535;SDS011;18974;50.838;4.636;2023-03-23T02:02:14;5.80;;;3.22;;
32535;SDS011;18974;50.838;4.636;2023-03-23T02:04:41;5.55;;;2.97;;
32535;SDS011;18974;50.838;4.636;2023-03-23T02:07:07;6.57;;;3.08;;
32535;SDS011;18974;50.838;4.636;2023-03-23T02:09:34;5.53;;;3.13;;
32535;SDS011;18974;50.838;4.636;2023-03-23T02:11:59;5.28;;;2.70;;
32535;SDS011;18974;50.838;4.636;2023-03-23T02:14:26;7.07;;;3.15;;
32535;SDS011;18974;50.838;4.636;2023-03-23T02:27:01;7.20;;;2.90;;
32535;SDS011;18974;50.838;4.636;2023-03-23T02:35:30;5.80;;;3.28;;
32535;SDS011;18974;50.838;4.636;2023-03-23T02:38:07;7.63;;;2.83;;
32535;SDS011;18974;50.838;4.636;2023-03-23T02:40:46;5.63;;;2.55;;
32535;SDS011;18974;50.838;4.636;2023-03-23T02:43:15;6.55;;;2.47;;
32535;SDS011;18974;50.838;4.636;2023-03-23T02:45:44;4.70;;;1.92;;
32535;SDS011;18974;50.838;4.636;2023-03-23T02:48:11;4.03;;;2.70;;
32535;SDS011;18974;50.838;4.636;2023-03-23T02:50:40;4.53;;;2.00;;
32535;SDS011;18974;50.838;4.636;2023-03-23T02:53:10;5.85;;;2.92;;
32535;SDS011;18974;50.838;4.636;2023-03-23T02:55:38;6.72;;;2.30;;
32535;SDS011;18974;50.838;4.636;2023-03-23T02:58:08;4.53;;;1.98;;
32535;SDS011;18974;50.838;4.636;2023-03-23T03:00:35;4.07;;;2.05;;
32535;SDS011;18974;50.838;4.636;2023-03-23T03:03:01;8.38;;;2.17;;
32535;SDS011;18974;50.838;4.636;2023-03-23T03:10:53;7.65;;;3.20;;
32535;SDS011;18974;50.838;4.636;2023-03-23T03:16:18;7.28;;;2.40;;
32535;SDS011;18974;50.838;4.636;2023-03-23T03:21:25;6.95;;;2.15;;
32535;SDS011;18974;50.838;4.636;2023-03-23T03:23:55;5.18;;;2.50;;
32535;SDS011;18974;50.838;4.636;2023-03-23T03:26:24;5.82;;;2.33;;
32535;SDS011;18974;50.838;4.636;2023-03-23T03:28:54;6.63;;;2.30;;
32535;SDS011;18974;50.838;4.636;2023-03-23T03:31:22;5.07;;;2.53;;
32535;SDS011;18974;50.838;4.636;2023-03-23T03:33:52;8.23;;;2.72;;
32535;SDS011;18974;50.838;4.636;2023-03-23T03:36:24;4.80;;;1.92;;
32535;SDS011;18974;50.838;4.636;2023-03-23T03:39:06;3.72;;;2.08;;
32535;SDS011;18974;50.838;4.636;2023-03-23T03:41:33;5.32;;;2.25;;
32535;SDS011;18974;50.838;4.636;2023-03-23T03:44:01;4.30;;;2.35;;
32535;SDS011;18974;50.838;4.636;2023-03-23T03:46:27;5.55;;;2.50;;
32535;SDS011;18974;50.838;4.636;2023-03-23T03:48:55;5.88;;;2.03;;
32535;SDS011;18974;50.838;4.636;2023-03-23T03:51:21;6.90;;;2.60;;
32535;SDS011;18974;50.838;4.636;2023-03-23T03:53:47;6.70;;;2.10;;
32535;SDS011;18974;50.838;4.636;2023-03-23T03:56:13;6.40;;;2.38;;
32535;SDS011;18974;50.838;4.636;2023-03-23T03:58:39;2.83;;;1.80;;
32535;SDS011;18974;50.838;4.636;2023-03-23T04:01:07;5.10;;;2.33;;
32535;SDS011;18974;50.838;4.636;2023-03-23T04:03:35;10.18;;;2.47;;
32535;SDS011;18974;50.838;4.636;2023-03-23T04:06:01;6.70;;;2.20;;
32535;SDS011;18974;50.838;4.636;2023-03-23T04:08:28;4.63;;;2.00;;
32535;SDS011;18974;50.838;4.636;2023-03-23T04:10:54;7.55;;;2.47;;
32535;SDS011;18974;50.838;4.636;2023-03-23T04:13:20;8.20;;;2.35;;
32535;SDS011;18974;50.838;4.636;2023-03-23T04:15:46;7.43;;;2.25;;
32535;SDS011;18974;50.838;4.636;2023-03-23T04:18:13;8.02;;;2.63;;
32535;SDS011;18974;50.838;4.636;2023-03-23T04:20:41;7.20;;;2.10;;
32535;SDS011;18974;50.838;4.636;2023-03-23T04:23:07;6.82;;;1.70;;
32535;SDS011;18974;50.838;4.636;2023-03-23T04:25:33;7.43;;;2.05;;
32535;SDS011;18974;50.838;4.636;2023-03-23T04:28:00;4.78;;;2.00;;
32535;SDS011;18974;50.838;4.636;2023-03-23T04:30:26;4.28;;;1.70;;
32535;SDS011;18974;50.838;4.636;2023-03-23T04:32:54;7.28;;;1.95;;
32535;SDS011;18974;50.838;4.636;2023-03-23T04:35:21;9.25;;;2.00;;
32535;SDS011;18974;50.838;4.636;2023-03-23T04:37:51;10.88;;;1.70;;
32535;SDS011;18974;50.838;4.636;2023-03-23T04:40:17;7.40;;;2.15;;
32535;SDS011;18974;50.838;4.636;2023-03-23T04:42:43;11.20;;;2.58;;
32535;SDS011;18974;50.838;4.636;2023-03-23T04:45:15;9.38;;;2.10;;
32535;SDS011;18974;50.838;4.636;2023-03-23T04:47:50;6.05;;;1.65;;
32535;SDS011;18974;50.838;4.636;2023-03-23T04:50:22;8.60;;;2.03;;
32535;SDS011;18974;50.838;4.636;2023-03-23T04:52:49;8.68;;;1.60;;
32535;SDS011;18974;50.838;4.636;2023-03-23T04:55:16;8.73;;;2.50;;
32535;SDS011;18974;50.838;4.636;2023-03-23T04:57:43;10.02;;;1.98;;
32535;SDS011;18974;50.838;4.636;2023-03-23T05:00:09;7.22;;;1.58;;
32535;SDS011;18974;50.838;4.636;2023-03-23T05:02:41;6.78;;;1.80;;
32535;SDS011;18974;50.838;4.636;2023-03-23T05:05:18;8.00;;;1.83;;
32535;SDS011;18974;50.838;4.636;2023-03-23T05:07:45;6.95;;;2.00;;
32535;SDS011;18974;50.838;4.636;2023-03-23T05:10:11;8.35;;;1.65;;
32535;SDS011;18974;50.838;4.636;2023-03-23T05:12:37;5.75;;;2.13;;
32535;SDS011;18974;50.838;4.636;2023-03-23T05:15:04;7.95;;;1.60;;
32535;SDS011;18974;50.838;4.636;2023-03-23T05:17:30;5.22;;;1.30;;
32535;SDS011;18974;50.838;4.636;2023-03-23T05:19:57;6.65;;;2.10;;
32535;SDS011;18974;50.838;4.636;2023-03-23T05:22:23;8.18;;;1.75;;
32535;SDS011;18974;50.838;4.636;2023-03-23T05:24:52;6.95;;;1.33;;
32535;SDS011;18974;50.838;4.636;2023-03-23T05:27:18;5.85;;;1.55;;
32535;SDS011;18974;50.838;4.636;2023-03-23T05:29:44;11.90;;;1.60;;
32535;SDS011;18974;50.838;4.636;2023-03-23T05:32:14;7.88;;;1.50;;
32535;SDS011;18974;50.838;4.636;2023-03-23T05:34:40;5.75;;;1.38;;
32535;SDS011;18974;50.838;4.636;2023-03-23T05:37:08;7.13;;;1.98;;
32535;SDS011;18974;50.838;4.636;2023-03-23T05:39:35;6.82;;;1.65;;
32535;SDS011;18974;50.838;4.636;2023-03-23T05:42:01;7.10;;;1.40;;
32535;SDS011;18974;50.838;4.636;2023-03-23T05:44:28;8.43;;;1.67;;
32535;SDS011;18974;50.838;4.636;2023-03-23T05:46:54;7.78;;;1.52;;
32535;SDS011;18974;50.838;4.636;2023-03-23T05:49:20;5.38;;;1.25;;
32535;SDS011;18974;50.838;4.636;2023-03-23T05:51:46;6.72;;;1.75;;
32535;SDS011;18974;50.838;4.636;2023-03-23T05:54:12;8.38;;;1.65;;
32535;SDS011;18974;50.838;4.636;2023-03-23T05:56:39;9.13;;;1.70;;
32535;SDS011;18974;50.838;4.636;2023-03-23T05:59:05;7.03;;;1.90;;
32535;SDS011;18974;50.838;4.636;2023-03-23T06:01:30;7.35;;;1.83;;
32535;SDS011;18974;50.838;4.636;2023-03-23T06:03:57;5.10;;;1.85;;
32535;SDS011;18974;50.838;4.636;2023-03-23T06:06:28;4.97;;;1.48;;
32535;SDS011;18974;50.838;4.636;2023-03-23T06:08:55;7.07;;;1.70;;
32535;SDS011;18974;50.838;4.636;2023-03-23T06:11:22;5.20;;;1.58;;
32535;SDS011;18974;50.838;4.636;2023-03-23T06:13:48;5.00;;;1.65;;
32535;SDS011;18974;50.838;4.636;2023-03-23T06:16:13;5.60;;;2.15;;
32535;SDS011;18974;50.838;4.636;2023-03-23T06:18:39;5.90;;;1.70;;
32535;SDS011;18974;50.838;4.636;2023-03-23T06:21:06;4.50;;;1.60;;
32535;SDS011;18974;50.838;4.636;2023-03-23T06:23:32;6.50;;;1.73;;
32535;SDS011;18974;50.838;4.636;2023-03-23T06:26:04;4.22;;;1.75;;
32535;SDS011;18974;50.838;4.636;2023-03-23T06:28:32;8.43;;;1.52;;
32535;SDS011;18974;50.838;4.636;2023-03-23T06:31:02;7.88;;;2.17;;
32535;SDS011;18974;50.838;4.636;2023-03-23T06:33:32;8.60;;;1.70;;
32535;SDS011;18974;50.838;4.636;2023-03-23T06:36:02;9.60;;;1.75;;
32535;SDS011;18974;50.838;4.636;2023-03-23T06:38:28;7.95;;;1.92;;
32535;SDS011;18974;50.838;4.636;2023-03-23T06:40:54;8.90;;;2.30;;
32535;SDS011;18974;50.838;4.636;2023-03-23T06:43:21;6.90;;;1.83;;
32535;SDS011;18974;50.838;4.636;2023-03-23T06:45:47;8.70;;;2.30;;
32535;SDS011;18974;50.838;4.636;2023-03-23T06:48:13;8.43;;;1.92;;
32535;SDS011;18974;50.838;4.636;2023-03-23T06:50:42;12.10;;;1.92;;
32535;SDS011;18974;50.838;4.636;2023-03-23T06:53:09;8.57;;;1.80;;
32535;SDS011;18974;50.838;4.636;2023-03-23T06:55:35;7.70;;;1.55;;
32535;SDS011;18974;50.838;4.636;2023-03-23T06:58:02;4.90;;;1.30;;
32535;SDS011;18974;50.838;4.636;2023-03-23T07:00:30;9.70;;;2.00;;
32535;SDS011;18974;50.838;4.636;2023-03-23T07:02:57;6.65;;;2.08;;
32535;SDS011;18974;50.838;4.636;2023-03-23T07:05:23;8.27;;;1.90;;
32535;SDS011;18974;50.838;4.636;2023-03-23T07:07:49;7.15;;;1.70;;
32535;SDS011;18974;50.838;4.636;2023-03-23T07:10:15;7.03;;;1.58;;
32535;SDS011;18974;50.838;4.636;2023-03-23T07:12:41;5.63;;;1.50;;
32535;SDS011;18974;50.838;4.636;2023-03-23T07:15:07;6.88;;;1.67;;
32535;SDS011;18974;50.838;4.636;2023-03-23T07:17:35;3.95;;;1.70;;
32535;SDS011;18974;50.838;4.636;2023-03-23T07:20:05;6.00;;;2.03;;
32535;SDS011;18974;50.838;4.636;2023-03-23T07:22:31;6.13;;;1.45;;
32535;SDS011;18974;50.838;4.636;2023-03-23T07:24:57;10.05;;;2.20;;
32535;SDS011;18974;50.838;4.636;2023-03-23T07:27:23;7.88;;;1.80;;
32535;SDS011;18974;50.838;4.636;2023-03-23T07:29:49;6.55;;;2.30;;
32535;SDS011;18974;50.838;4.636;2023-03-23T07:32:15;10.15;;;1.65;;
32535;SDS011;18974;50.838;4.636;2023-03-23T07:34:41;4.90;;;1.40;;
32535;SDS011;18974;50.838;4.636;2023-03-23T07:37:07;4.43;;;1.50;;
32535;SDS011;18974;50.838;4.636;2023-03-23T07:39:34;8.02;;;2.10;;
32535;SDS011;18974;50.838;4.636;2023-03-23T07:42:01;11.63;;;2.33;;
32535;SDS011;18974;50.838;4.636;2023-03-23T07:44:26;7.97;;;2.45;;
32535;SDS011;18974;50.838;4.636;2023-03-23T07:46:52;7.20;;;1.88;;
32535;SDS011;18974;50.838;4.636;2023-03-23T07:49:18;3.60;;;1.10;;
32535;SDS011;18974;50.838;4.636;2023-03-23T07:51:44;6.35;;;1.20;;
32535;SDS011;18974;50.838;4.636;2023-03-23T07:54:11;5.22;;;1.60;;
32535;SDS011;18974;50.838;4.636;2023-03-23T07:56:37;10.63;;;2.05;;
32535;SDS011;18974;50.838;4.636;2023-03-23T07:59:07;7.18;;;1.50;;
32535;SDS011;18974;50.838;4.636;2023-03-23T08:01:33;2.67;;;1.52;;
32535;SDS011;18974;50.838;4.636;2023-03-23T08:03:59;4.68;;;1.70;;
32535;SDS011;18974;50.838;4.636;2023-03-23T08:06:25;9.30;;;1.98;;
32535;SDS011;18974;50.838;4.636;2023-03-23T08:08:51;6.72;;;2.00;;
32535;SDS011;18974;50.838;4.636;2023-03-23T08:11:18;6.57;;;2.47;;
32535;SDS011;18974;50.838;4.636;2023-03-23T08:13:44;5.68;;;1.65;;
32535;SDS011;18974;50.838;4.636;2023-03-23T08:16:10;7.47;;;1.88;;
32535;SDS011;18974;50.838;4.636;2023-03-23T08:18:36;11.13;;;1.63;;
32535;SDS011;18974;50.838;4.636;2023-03-23T08:21:06;6.00;;;1.63;;
32535;SDS011;18974;50.838;4.636;2023-03-23T08:23:34;7.43;;;2.22;;
32535;SDS011;18974;50.838;4.636;2023-03-23T08:26:04;6.95;;;1.45;;
32535;SDS011;18974;50.838;4.636;2023-03-23T08:28:31;4.53;;;0.98;;
32535;SDS011;18974;50.838;4.636;2023-03-23T08:31:05;3.42;;;1.10;;
32535;SDS011;18974;50.838;4.636;2023-03-23T08:33:35;3.28;;;0.77;;
32535;SDS011;18974;50.838;4.636;2023-03-23T08:36:01;4.35;;;1.33;;
32535;SDS011;18974;50.838;4.636;2023-03-23T08:38:28;2.25;;;0.75;;
32535;SDS011;18974;50.838;4.636;2023-03-23T08:40:58;1.90;;;0.80;;
32535;SDS011;18974;50.838;4.636;2023-03-23T08:43:25;5.75;;;1.02;;
32535;SDS011;18974;50.838;4.636;2023-03-23T08:45:52;1.35;;;0.60;;
32535;SDS011;18974;50.838;4.636;2023-03-23T08:48:18;2.10;;;0.57;;
32535;SDS011;18974;50.838;4.636;2023-03-23T08:50:44;6.10;;;1.00;;
32535;SDS011;18974;50.838;4.636;2023-03-23T08:53:10;4.05;;;0.80;;
32535;SDS011;18974;50.838;4.636;2023-03-23T08:55:36;2.92;;;0.93;;
32535;SDS011;18974;50.838;4.636;2023-03-23T08:58:03;2.63;;;0.95;;
32535;SDS011;18974;50.838;4.636;2023-03-23T09:00:29;2.90;;;1.00;;
32535;SDS011;18974;50.838;4.636;2023-03-23T09:02:55;4.10;;;0.63;;
32535;SDS011;18974;50.838;4.636;2023-03-23T09:05:23;4.88;;;0.80;;
32535;SDS011;18974;50.838;4.636;2023-03-23T09:07:50;2.38;;;0.80;;
32535;SDS011;18974;50.838;4.636;2023-03-23T09:10:17;3.72;;;0.90;;
32535;SDS011;18974;50.838;4.636;2023-03-23T09:12:44;3.38;;;0.90;;
32535;SDS011;18974;50.838;4.636;2023-03-23T09:15:12;5.63;;;1.00;;
32535;SDS011;18974;50.838;4.636;2023-03-23T09:17:44;2.60;;;0.80;;
32535;SDS011;18974;50.838;4.636;2023-03-23T09:20:12;4.82;;;0.73;;
32535;SDS011;18974;50.838;4.636;2023-03-23T09:22:41;3.15;;;1.20;;
32535;SDS011;18974;50.838;4.636;2023-03-23T09:25:09;2.13;;;1.02;;
32535;SDS011;18974;50.838;4.636;2023-03-23T09:27:36;2.53;;;1.00;;
32535;SDS011;18974;50.838;4.636;2023-03-23T09:30:04;3.58;;;1.23;;
32535;SDS011;18974;50.838;4.636;2023-03-23T09:32:35;2.17;;;1.00;;
32535;SDS011;18974;50.838;4.636;2023-03-23T09:35:02;7.03;;;1.20;;
32535;SDS011;18974;50.838;4.636;2023-03-23T09:37:31;2.60;;;1.00;;
32535;SDS011;18974;50.838;4.636;2023-03-23T09:39:58;4.07;;;1.48;;
32535;SDS011;18974;50.838;4.636;2023-03-23T09:50:36;6.20;;;2.15;;
32535;SDS011;18974;50.838;4.636;2023-03-23T09:53:09;4.55;;;1.02;;
32535;SDS011;18974;50.838;4.636;2023-03-23T09:55:41;5.75;;;2.40;;
32535;SDS011;18974;50.838;4.636;2023-03-23T09:58:27;5.13;;;1.55;;
32535;SDS011;18974;50.838;4.636;2023-03-23T10:01:13;2.80;;;1.40;;
32535;SDS011;18974;50.838;4.636;2023-03-23T10:06:45;3.78;;;1.00;;
32535;SDS011;18974;50.838;4.636;2023-03-23T10:09:13;8.93;;;1.73;;
32535;SDS011;18974;50.838;4.636;2023-03-23T10:14:22;3.58;;;1.40;;
32535;SDS011;18974;50.838;4.636;2023-03-23T10:22:42;5.93;;;1.27;;
32535;SDS011;18974;50.838;4.636;2023-03-23T10:25:24;4.47;;;1.60;;
32535;SDS011;18974;50.838;4.636;2023-03-23T10:30:41;4.72;;;1.40;;
32535;SDS011;18974;50.838;4.636;2023-03-23T10:35:57;7.80;;;1.67;;
32535;SDS011;18974;50.838;4.636;2023-03-23T10:38:39;5.55;;;1.80;;
32535;SDS011;18974;50.838;4.636;2023-03-23T10:41:10;3.92;;;1.80;;
32535;SDS011;18974;50.838;4.636;2023-03-23T10:43:38;2.78;;;1.77;;
32535;SDS011;18974;50.838;4.636;2023-03-23T10:48:58;3.25;;;1.90;;
32535;SDS011;18974;50.838;4.636;2023-03-23T10:51:32;6.68;;;1.60;;
32535;SDS011;18974;50.838;4.636;2023-03-23T10:54:01;6.35;;;2.17;;
32535;SDS011;18974;50.838;4.636;2023-03-23T10:56:36;5.05;;;2.45;;
32535;SDS011;18974;50.838;4.636;2023-03-23T10:59:20;9.70;;;2.33;;
32535;SDS011;18974;50.838;4.636;2023-03-23T11:01:54;5.35;;;2.30;;
32535;SDS011;18974;50.838;4.636;2023-03-23T11:04:22;4.28;;;2.25;;
32535;SDS011;18974;50.838;4.636;2023-03-23T11:06:51;9.00;;;2.60;;
32535;SDS011;18974;50.838;4.636;2023-03-23T11:09:21;5.95;;;2.03;;
32535;SDS011;18974;50.838;4.636;2023-03-23T11:11:58;6.18;;;2.60;;
32535;SDS011;18974;50.838;4.636;2023-03-23T11:14:28;7.35;;;2.50;;
32535;SDS011;18974;50.838;4.636;2023-03-23T11:17:03;10.35;;;3.30;;
32535;SDS011;18974;50.838;4.636;2023-03-23T11:19:32;9.00;;;4.43;;
32535;SDS011;18974;50.838;4.636;2023-03-23T11:22:13;9.20;;;4.15;;
32535;SDS011;18974;50.838;4.636;2023-03-23T11:24:45;10.23;;;4.28;;
32535;SDS011;18974;50.838;4.636;2023-03-23T11:27:13;10.48;;;5.22;;
32535;SDS011;18974;50.838;4.636;2023-03-23T11:29:48;12.07;;;5.72;;
32535;SDS011;18974;50.838;4.636;2023-03-23T11:32:17;14.57;;;6.15;;
32535;SDS011;18974;50.838;4.636;2023-03-23T11:34:43;9.52;;;5.32;;
32535;SDS011;18974;50.838;4.636;2023-03-23T11:39:55;9.98;;;4.75;;
32535;SDS011;18974;50.838;4.636;2023-03-23T11:50:55;7.85;;;3.35;;
32535;SDS011;18974;50.838;4.636;2023-03-23T11:53:48;7.50;;;2.17;;
32535;SDS011;18974;50.838;4.636;2023-03-23T11:58:56;7.53;;;2.45;;
32535;SDS011;18974;50.838;4.636;2023-03-23T12:12:35;7.80;;;2.35;;
32535;SDS011;18974;50.838;4.636;2023-03-23T12:15:20;5.97;;;2.28;;
32535;SDS011;18974;50.838;4.636;2023-03-23T12:17:59;7.88;;;2.00;;
32535;SDS011;18974;50.838;4.636;2023-03-23T12:34:43;9.45;;;2.30;;
32535;SDS011;18974;50.838;4.636;2023-03-23T12:45:42;8.35;;;2.47;;
32535;SDS011;18974;50.838;4.636;2023-03-23T12:48:24;11.95;;;2.63;;
32535;SDS011;18974;50.838;4.636;2023-03-23T12:53:43;8.98;;;2.63;;
32535;SDS011;18974;50.838;4.636;2023-03-23T12:56:44;8.85;;;3.50;;
32535;SDS011;18974;50.838;4.636;2023-03-23T12:59:34;11.95;;;4.10;;
32535;SDS011;18974;50.838;4.636;2023-03-23T13:02:12;13.48;;;4.20;;
32535;SDS011;18974;50.838;4.636;2023-03-23T13:04:40;10.93;;;4.35;;
32535;SDS011;18974;50.838;4.636;2023-03-23T13:07:12;11.60;;;3.42;;
32535;SDS011;18974;50.838;4.636;2023-03-23T13:12:13;10.55;;;3.05;;
32535;SDS011;18974;50.838;4.636;2023-03-23T13:22:45;11.23;;;3.08;;
32535;SDS011;18974;50.838;4.636;2023-03-23T13:25:18;17.13;;;3.05;;
32535;SDS011;18974;50.838;4.636;2023-03-23T13:27:56;12.10;;;3.63;;
32535;SDS011;18974;50.838;4.636;2023-03-23T13:30:23;9.10;;;2.63;;
32535;SDS011;18974;50.838;4.636;2023-03-23T13:32:49;9.55;;;3.20;;
32535;SDS011;18974;50.838;4.636;2023-03-23T13:35:17;9.05;;;2.90;;
32535;SDS011;18974;50.838;4.636;2023-03-23T13:37:50;13.48;;;3.17;;
32535;SDS011;18974;50.838;4.636;2023-03-23T13:40:27;11.63;;;3.05;;
32535;SDS011;18974;50.838;4.636;2023-03-23T13:42:55;20.33;;;2.60;;
32535;SDS011;18974;50.838;4.636;2023-03-23T13:45:35;12.38;;;3.33;;
32535;SDS011;18974;50.838;4.636;2023-03-23T13:50:50;10.40;;;2.83;;
32535;SDS011;18974;50.838;4.636;2023-03-23T13:55:49;9.82;;;3.08;;
32535;SDS011;18974;50.838;4.636;2023-03-23T13:58:43;8.10;;;2.67;;
32535;SDS011;18974;50.838;4.636;2023-03-23T14:04:00;12.00;;;2.88;;
32535;SDS011;18974;50.838;4.636;2023-03-23T14:06:33;10.90;;;2.85;;
32535;SDS011;18974;50.838;4.636;2023-03-23T14:09:04;10.32;;;3.25;;
32535;SDS011;18974;50.838;4.636;2023-03-23T14:11:50;10.48;;;3.53;;
32535;SDS011;18974;50.838;4.636;2023-03-23T14:14:28;10.40;;;2.80;;
32535;SDS011;18974;50.838;4.636;2023-03-23T14:19:57;8.65;;;2.42;;
32535;SDS011;18974;50.838;4.636;2023-03-23T14:22:25;10.98;;;3.17;;
32535;SDS011;18974;50.838;4.636;2023-03-23T14:24:58;12.93;;;3.95;;
32535;SDS011;18974;50.838;4.636;2023-03-23T14:27:26;14.48;;;3.17;;
32535;SDS011;18974;50.838;4.636;2023-03-23T14:29:59;19.67;;;6.53;;
32535;SDS011;18974;50.838;4.636;2023-03-23T14:32:27;17.27;;;5.57;;
32535;SDS011;18974;50.838;4.636;2023-03-23T14:34:56;11.30;;;3.13;;
32535;SDS011;18974;50.838;4.636;2023-03-23T14:37:22;13.27;;;4.38;;
32535;SDS011;18974;50.838;4.636;2023-03-23T14:39:49;9.90;;;3.40;;
32535;SDS011;18974;50.838;4.636;2023-03-23T14:42:19;15.20;;;3.92;;
32535;SDS011;18974;50.838;4.636;2023-03-23T14:44:51;11.88;;;2.95;;
32535;SDS011;18974;50.838;4.636;2023-03-23T14:47:29;12.23;;;3.15;;
32535;SDS011;18974;50.838;4.636;2023-03-23T14:50:06;8.25;;;2.97;;
32535;SDS011;18974;50.838;4.636;2023-03-23T14:52:50;12.45;;;2.53;;
32535;SDS011;18974;50.838;4.636;2023-03-23T14:55:17;10.13;;;2.72;;
32535;SDS011;18974;50.838;4.636;2023-03-23T14:57:45;13.32;;;3.38;;
32535;SDS011;18974;50.838;4.636;2023-03-23T15:00:23;12.27;;;3.13;;
32535;SDS011;18974;50.838;4.636;2023-03-23T15:02:53;13.63;;;2.08;;
32535;SDS011;18974;50.838;4.636;2023-03-23T15:05:32;9.02;;;2.60;;
32535;SDS011;18974;50.838;4.636;2023-03-23T15:08:10;11.82;;;2.63;;
32535;SDS011;18974;50.838;4.636;2023-03-23T15:10:39;8.32;;;1.67;;
32535;SDS011;18974;50.838;4.636;2023-03-23T15:13:05;10.02;;;2.63;;
32535;SDS011;18974;50.838;4.636;2023-03-23T15:15:35;9.35;;;2.28;;
32535;SDS011;18974;50.838;4.636;2023-03-23T15:18:02;11.15;;;2.35;;
32535;SDS011;18974;50.838;4.636;2023-03-23T15:20:45;12.98;;;2.90;;
32535;SDS011;18974;50.838;4.636;2023-03-23T15:23:16;15.60;;;3.63;;
32535;SDS011;18974;50.838;4.636;2023-03-23T15:25:51;12.63;;;2.63;;
32535;SDS011;18974;50.838;4.636;2023-03-23T15:28:19;8.05;;;2.58;;
32535;SDS011;18974;50.838;4.636;2023-03-23T15:30:57;11.18;;;2.88;;
32535;SDS011;18974;50.838;4.636;2023-03-23T15:33:33;10.88;;;3.00;;
32535;SDS011;18974;50.838;4.636;2023-03-23T15:36:08;14.70;;;3.58;;
32535;SDS011;18974;50.838;4.636;2023-03-23T15:38:42;9.32;;;2.65;;
32535;SDS011;18974;50.838;4.636;2023-03-23T15:41:20;9.18;;;2.83;;
32535;SDS011;18974;50.838;4.636;2023-03-23T15:43:52;12.93;;;2.97;;
32535;SDS011;18974;50.838;4.636;2023-03-23T15:46:24;10.57;;;2.88;;
32535;SDS011;18974;50.838;4.636;2023-03-23T15:51:24;11.52;;;3.55;;
32535;SDS011;18974;50.838;4.636;2023-03-23T15:53:51;10.63;;;3.92;;
32535;SDS011;18974;50.838;4.636;2023-03-23T15:56:18;12.18;;;3.10;;
32535;SDS011;18974;50.838;4.636;2023-03-23T15:58:45;10.50;;;2.45;;
32535;SDS011;18974;50.838;4.636;2023-03-23T16:01:21;22.70;;;4.65;;
32535;SDS011;18974;50.838;4.636;2023-03-23T16:04:00;18.42;;;4.15;;
32535;SDS011;18974;50.838;4.636;2023-03-23T16:06:32;8.85;;;2.95;;
32535;SDS011;18974;50.838;4.636;2023-03-23T16:08:59;15.55;;;3.15;;
32535;SDS011;18974;50.838;4.636;2023-03-23T16:11:26;12.90;;;3.13;;
32535;SDS011;18974;50.838;4.636;2023-03-23T16:13:53;14.00;;;3.35;;
32535;SDS011;18974;50.838;4.636;2023-03-23T16:18:58;14.13;;;2.97;;
32535;SDS011;18974;50.838;4.636;2023-03-23T16:21:23;10.98;;;2.60;;
32535;SDS011;18974;50.838;4.636;2023-03-23T16:23:50;11.70;;;2.33;;
32535;SDS011;18974;50.838;4.636;2023-03-23T16:26:15;10.00;;;2.63;;
32535;SDS011;18974;50.838;4.636;2023-03-23T16:28:42;12.77;;;2.70;;
32535;SDS011;18974;50.838;4.636;2023-03-23T16:31:08;6.95;;;2.47;;
32535;SDS011;18974;50.838;4.636;2023-03-23T16:33:34;11.73;;;2.75;;
32535;SDS011;18974;50.838;4.636;2023-03-23T16:36:00;10.82;;;3.08;;
32535;SDS011;18974;50.838;4.636;2023-03-23T16:38:26;9.68;;;2.95;;
32535;SDS011;18974;50.838;4.636;2023-03-23T16:40:52;14.82;;;3.20;;
32535;SDS011;18974;50.838;4.636;2023-03-23T16:43:18;9.15;;;2.35;;
32535;SDS011;18974;50.838;4.636;2023-03-23T16:45:45;7.88;;;2.53;;
32535;SDS011;18974;50.838;4.636;2023-03-23T16:48:12;9.80;;;2.20;;
32535;SDS011;18974;50.838;4.636;2023-03-23T16:50:39;8.32;;;2.70;;
32535;SDS011;18974;50.838;4.636;2023-03-23T16:53:05;8.30;;;2.63;;
32535;SDS011;18974;50.838;4.636;2023-03-23T16:55:32;8.05;;;2.60;;
32535;SDS011;18974;50.838;4.636;2023-03-23T16:57:59;8.25;;;2.67;;
32535;SDS011;18974;50.838;4.636;2023-03-23T17:00:25;13.15;;;2.90;;
32535;SDS011;18974;50.838;4.636;2023-03-23T17:02:52;11.15;;;3.05;;
32535;SDS011;18974;50.838;4.636;2023-03-23T17:05:22;10.13;;;2.53;;
32535;SDS011;18974;50.838;4.636;2023-03-23T17:07:50;9.18;;;2.08;;
32535;SDS011;18974;50.838;4.636;2023-03-23T17:10:16;8.35;;;2.60;;
32535;SDS011;18974;50.838;4.636;2023-03-23T17:12:42;9.35;;;2.15;;
32535;SDS011;18974;50.838;4.636;2023-03-23T17:15:09;14.48;;;2.80;;